Time;durP1;ratioP1;P1;durP2;ratioP2;P2;SDS_P1;SDS_P2;PMS_P1;PMS_P2;Temp;Humidity;BMP_temperature;BMP_pressure;BME280_temperature;BME280_humidity;BME280_pressure;Samples;Min_cycle;Max_cycle;Signal;HPM_P1;HPM_P2
2023/04/30 00:01:40;;;;;;;0.30;0.30;;;;;;;11.16;100.00;101135.28;5051947;28;20102;-82
2023/04/30 00:04:06;;;;;;;0.38;0.38;;;;;;;11.10;100.00;101126.03;5036720;28;20061;-82
2023/04/30 00:06:39;;;;;;;0.40;0.40;;;;;;;11.09;100.00;101129.75;5036483;28;20442;-81
2023/04/30 00:09:04;;;;;;;0.30;0.30;;;;;;;11.11;100.00;101140.34;5037300;28;20029;-83
2023/04/30 00:11:30;;;;;;;0.40;0.40;;;;;;;11.08;100.00;101136.13;5054894;28;20039;-85
2023/04/30 00:14:01;;;;;;;0.30;0.30;;;;;;;11.07;100.00;101137.16;5056319;28;20028;-84
2023/04/30 00:16:27;;;;;;;0.40;0.40;;;;;;;11.10;100.00;101135.97;5056372;28;20029;-81
2023/04/30 00:18:55;;;;;;;0.40;0.40;;;;;;;11.02;100.00;101122.53;5040233;28;20039;-87
2023/04/30 00:21:25;;;;;;;0.40;0.40;;;;;;;11.14;100.00;101146.25;5056805;28;20033;-82
2023/04/30 00:23:55;;;;;;;0.40;0.40;;;;;;;11.15;100.00;101144.38;5056539;28;20037;-81
2023/04/30 00:26:24;;;;;;;0.30;0.30;;;;;;;11.15;100.00;101141.69;5022361;28;20045;-82
2023/04/30 00:28:52;;;;;;;0.40;0.40;;;;;;;11.07;100.00;101131.78;5055730;28;20055;-86
2023/04/30 00:31:23;;;;;;;0.35;0.35;;;;;;;11.07;100.00;101130.94;5023491;28;20082;-86
2023/04/30 00:33:56;;;;;;;0.40;0.40;;;;;;;11.07;100.00;101130.94;5038116;28;20025;-86
2023/04/30 00:36:21;;;;;;;0.30;0.30;;;;;;;11.00;100.00;101128.06;5054539;28;20056;-85
2023/04/30 00:38:47;;;;;;;0.30;0.30;;;;;;;10.94;100.00;101129.59;5053631;28;20032;-85
2023/04/30 00:41:13;;;;;;;0.35;0.35;;;;;;;10.91;100.00;101127.25;5057421;28;20105;-86
2023/04/30 00:43:38;;;;;;;0.30;0.30;;;;;;;10.89;100.00;101133.81;5057003;28;20029;-83
2023/04/30 00:46:05;;;;;;;0.40;0.40;;;;;;;10.77;100.00;101120.69;5037875;28;20023;-82
2023/04/30 00:48:31;;;;;;;0.40;0.40;;;;;;;10.75;100.00;101124.56;5056242;28;20029;-82
2023/04/30 00:51:04;;;;;;;0.30;0.30;;;;;;;10.70;100.00;101125.06;5055719;28;20032;-83
2023/04/30 00:53:30;;;;;;;0.30;0.30;;;;;;;10.60;100.00;101123.53;5022391;28;20029;-81
2023/04/30 00:55:58;;;;;;;0.40;0.40;;;;;;;10.44;100.00;101110.91;5019032;28;20128;-86
2023/04/30 00:58:26;;;;;;;0.40;0.40;;;;;;;10.44;100.00;101125.19;5035863;28;20123;-87
2023/04/30 01:00:58;;;;;;;0.35;0.35;;;;;;;10.33;100.00;101109.41;5051652;28;20083;-84
2023/04/30 01:03:27;;;;;;;0.30;0.30;;;;;;;10.26;100.00;101122.59;5020932;28;20045;-84
2023/04/30 01:05:55;;;;;;;0.40;0.40;;;;;;;10.18;100.00;101121.75;5003462;28;20025;-82
2023/04/30 01:08:25;;;;;;;0.30;0.30;;;;;;;10.11;100.00;101113.53;5051592;28;20025;-86
2023/04/30 01:11:05;;;;;;;0.30;0.30;;;;;;;10.18;100.00;101125.28;5035886;28;20029;-89
2023/04/30 01:13:43;;;;;;;0.30;0.30;;;;;;;10.23;100.00;101119.41;5051903;28;20040;-87
2023/04/30 01:16:19;;;;;;;0.40;0.40;;;;;;;10.17;100.00;101115.56;5035913;28;20037;-82
2023/04/30 01:18:54;;;;;;;0.30;0.30;;;;;;;10.15;100.00;101116.72;5035427;28;20029;-81
2023/04/30 01:21:20;;;;;;;;;;;;;;;10.14;100.00;101118.56;5036467;28;20029;-85
2023/04/30 01:24:08;;;;;;;0.40;0.40;;;;;;;10.17;100.00;101112.84;5068699;28;19912;-84
2023/04/30 01:27:22;;;;;;;0.30;0.30;;;;;;;10.23;100.00;101116.72;5068253;28;20498;-87
2023/04/30 01:29:53;;;;;;;0.40;0.40;;;;;;;10.23;100.00;101106.81;5041955;28;20638;-83
2023/04/30 01:32:24;;;;;;;0.30;0.30;;;;;;;10.29;100.00;101121.47;5020039;28;20044;-88
2023/04/30 01:34:49;;;;;;;0.30;0.30;;;;;;;10.19;100.00;101108.16;5051089;28;20399;-81
2023/04/30 01:37:46;;;;;;;0.40;0.40;;;;;;;10.15;100.00;101116.72;5051757;28;20025;-87
2023/04/30 01:40:23;;;;;;;0.30;0.30;;;;;;;10.13;100.00;101112.34;5051389;28;20036;-84
2023/04/30 01:43:12;;;;;;;0.40;0.40;;;;;;;10.13;100.00;101115.06;5035323;28;20036;-85
2023/04/30 01:45:39;;;;;;;0.40;0.40;;;;;;;10.17;100.00;101118.22;5034959;28;20029;-88
2023/04/30 01:48:52;;;;;;;0.40;0.40;;;;;;;10.17;100.00;101103.97;5034629;28;20037;-84
2023/04/30 01:51:40;;;;;;;0.40;0.40;;;;;;;10.36;100.00;101113.59;5034586;28;20045;-83
2023/04/30 01:54:18;;;;;;;0.40;0.40;;;;;;;10.34;100.00;101087.72;5051300;28;20063;-83
2023/04/30 01:57:02;;;;;;;0.30;0.30;;;;;;;10.56;100.00;101112.28;5019246;28;20033;-85
2023/04/30 01:59:41;;;;;;;0.30;0.30;;;;;;;10.63;100.00;101115.97;5018978;28;20033;-83
2023/04/30 02:02:09;;;;;;;0.40;0.40;;;;;;;10.66;100.00;101121.00;5038391;28;20036;-87
2023/04/30 02:04:37;;;;;;;0.40;0.40;;;;;;;10.62;100.00;101106.22;5054687;28;20065;-82
2023/04/30 02:07:05;;;;;;;0.30;0.30;;;;;;;10.64;100.00;101109.59;5021297;28;20125;-84
2023/04/30 02:09:31;;;;;;;0.30;0.30;;;;;;;10.65;100.00;101102.38;5055546;28;20037;-81
2023/04/30 02:12:04;;;;;;;0.40;0.40;;;;;;;10.78;100.00;101114.28;5055674;28;20055;-87
2023/04/30 02:14:30;;;;;;;0.40;0.40;;;;;;;10.76;100.00;101102.03;5054427;28;20130;-86
2023/04/30 02:17:05;;;;;;;0.30;0.30;;;;;;;10.83;100.00;101121.88;5038828;28;20033;-87
2023/04/30 02:19:30;;;;;;;0.30;0.30;;;;;;;10.83;100.00;101111.09;5038046;28;20087;-87
2023/04/30 02:21:58;;;;;;;0.30;0.30;;;;;;;10.85;100.00;101113.59;5055443;28;20032;-82
2023/04/30 02:24:29;;;;;;;0.40;0.40;;;;;;;10.79;100.00;101110.59;5056764;28;20078;-83
2023/04/30 02:26:55;;;;;;;0.30;0.30;;;;;;;10.79;100.00;101105.19;5055930;28;20059;-83
2023/04/30 02:29:23;;;;;;;0.38;0.38;;;;;;;10.81;100.00;101113.13;5054831;28;20033;-87
2023/04/30 02:31:49;;;;;;;0.35;0.35;;;;;;;10.80;100.00;101114.13;5021848;28;20040;-86
2023/04/30 02:34:15;;;;;;;0.30;0.30;;;;;;;10.82;100.00;101111.25;5037468;28;20041;-84
2023/04/30 02:36:43;;;;;;;0.30;0.30;;;;;;;10.78;100.00;101108.09;5053860;28;20029;-85
2023/04/30 02:39:18;;;;;;;0.30;0.30;;;;;;;10.76;100.00;101104.72;5021845;28;20043;-82
2023/04/30 02:41:44;;;;;;;0.30;0.30;;;;;;;10.74;100.00;101096.84;5055144;28;20029;-86
2023/04/30 02:44:10;;;;;;;0.40;0.40;;;;;;;10.79;100.00;101101.69;5036921;28;20039;-86
2023/04/30 02:46:36;;;;;;;0.30;0.30;;;;;;;10.77;100.00;101101.88;5021244;28;20044;-83
2023/04/30 02:49:08;;;;;;;0.30;0.30;;;;;;;10.74;100.00;101093.28;5054289;28;20443;-87
2023/04/30 02:51:41;;;;;;;0.30;0.30;;;;;;;10.72;100.00;101095.31;5020629;28;20028;-86
2023/04/30 02:54:06;;;;;;;0.30;0.30;;;;;;;10.46;100.00;101064.03;5021750;28;20098;-85
2023/04/30 02:56:35;;;;;;;0.40;0.40;;;;;;;10.43;100.00;101085.06;5055047;28;20033;-86
2023/04/30 02:59:04;;;;;;;0.40;0.40;;;;;;;10.23;100.00;101089.84;5020653;28;20049;-86
2023/04/30 03:01:32;;;;;;;0.32;0.32;;;;;;;10.02;100.00;101075.03;5054117;28;20032;-85
2023/04/30 03:04:02;;;;;;;0.30;0.30;;;;;;;9.82;100.00;101073.66;5037190;28;20083;-81
2023/04/30 03:06:30;;;;;;;0.40;0.40;;;;;;;9.85;100.00;101084.06;5038169;28;20063;-86
2023/04/30 03:08:56;;;;;;;0.40;0.40;;;;;;;9.83;100.00;101078.00;5037207;28;20033;-83
2023/04/30 03:11:22;;;;;;;0.40;0.40;;;;;;;9.90;100.00;101087.94;5053076;28;20033;-83
2023/04/30 03:13:50;;;;;;;0.40;0.40;;;;;;;9.91;100.00;101086.09;5053368;28;20033;-87
2023/04/30 03:16:20;;;;;;;0.40;0.40;;;;;;;9.93;100.00;101084.09;5021296;28;20041;-84
2023/04/30 03:18:50;;;;;;;0.40;0.40;;;;;;;9.92;100.00;101082.38;5037478;28;20057;-85
2023/04/30 03:21:19;;;;;;;0.40;0.40;;;;;;;9.83;100.00;101078.00;5052825;28;20021;-87
2023/04/30 03:23:47;;;;;;;0.30;0.30;;;;;;;9.73;100.00;101083.50;5054532;28;20430;-88
2023/04/30 03:26:33;;;;;;;0.40;0.40;;;;;;;9.67;100.00;101078.78;5053462;28;20041;-82
2023/04/30 03:29:03;;;;;;;0.30;0.30;;;;;;;9.65;100.00;101076.25;5054910;28;20095;-86
2023/04/30 03:31:28;;;;;;;0.30;0.30;;;;;;;9.83;100.00;101078.84;5020135;28;20033;-85
2023/04/30 03:33:58;;;;;;;0.40;0.40;;;;;;;9.92;100.00;101082.38;5053964;28;20032;-85
2023/04/30 03:36:27;;;;;;;0.40;0.40;;;;;;;9.97;100.00;101073.84;5053618;28;20031;-85
2023/04/30 03:38:53;;;;;;;0.38;0.38;;;;;;;9.99;100.00;101078.06;5052715;28;20029;-86
2023/04/30 03:41:18;;;;;;;0.43;0.43;;;;;;;9.90;100.00;101071.81;5054162;28;20043;-83
2023/04/30 03:43:47;;;;;;;0.30;0.30;;;;;;;9.86;100.00;101069.63;5052466;28;20042;-83
2023/04/30 03:46:15;;;;;;;0.30;0.30;;;;;;;9.67;100.00;101070.75;5054158;28;20021;-85
2023/04/30 03:48:40;;;;;;;0.40;0.40;;;;;;;9.68;100.00;101083.16;5036776;28;20032;-87
2023/04/30 03:51:06;;;;;;;0.30;0.30;;;;;;;9.62;100.00;101065.00;5035990;28;20136;-85
2023/04/30 03:53:34;;;;;;;0.30;0.30;;;;;;;9.76;100.00;101077.81;5053636;28;20086;-84
2023/04/30 03:56:02;;;;;;;0.40;0.40;;;;;;;9.74;100.00;101070.91;5036416;28;20040;-86
2023/04/30 03:58:28;;;;;;;0.40;0.40;;;;;;;9.62;100.00;101067.69;5035599;28;20453;-84
2023/04/30 04:00:54;;;;;;;0.30;0.30;;;;;;;9.63;100.00;101080.97;5019019;28;20040;-84
2023/04/30 04:03:23;;;;;;;0.40;0.40;;;;;;;9.58;100.00;101077.06;5036415;28;20083;-86
2023/04/30 04:05:48;;;;;;;0.30;0.30;;;;;;;9.55;100.00;101085.44;5036280;28;20029;-82
2023/04/30 04:08:18;;;;;;;0.30;0.30;;;;;;;9.45;100.00;101074.84;5052335;28;20021;-86
2023/04/30 04:10:43;;;;;;;0.40;0.40;;;;;;;9.65;100.00;101087.00;5051677;28;20086;-89
2023/04/30 04:13:11;;;;;;;0.30;0.30;;;;;;;9.74;100.00;101078.97;5052533;28;20033;-83
2023/04/30 04:15:39;;;;;;;0.40;0.40;;;;;;;9.82;100.00;101085.22;5053181;28;20033;-87
2023/04/30 04:18:09;;;;;;;0.35;0.35;;;;;;;9.92;100.00;101079.69;5036143;28;20112;-87
2023/04/30 04:20:35;;;;;;;0.30;0.30;;;;;;;9.92;100.00;101071.63;5051592;28;20036;-84
2023/04/30 04:23:03;;;;;;;0.40;0.40;;;;;;;10.05;100.00;101071.19;5069582;28;20399;-86
2023/04/30 04:25:29;;;;;;;0.40;0.40;;;;;;;10.09;100.00;101086.81;5052149;28;20043;-86
2023/04/30 04:27:54;;;;;;;0.40;0.40;;;;;;;10.10;100.00;101090.34;5050343;28;20383;-86
2023/04/30 04:30:20;;;;;;;0.30;0.30;;;;;;;10.11;100.00;101074.06;5053789;28;20041;-83
2023/04/30 04:32:54;;;;;;;0.38;0.38;;;;;;;10.12;100.00;101073.03;5019777;28;20044;-85
2023/04/30 04:35:25;;;;;;;0.38;0.38;;;;;;;10.13;100.00;101074.75;5019602;28;20025;-87
2023/04/30 04:37:50;;;;;;;0.40;0.40;;;;;;;10.16;100.00;101081.63;5052057;28;20037;-83
2023/04/30 04:40:17;;;;;;;0.30;0.30;;;;;;;10.19;100.00;101091.19;5051631;28;20031;-86
2023/04/30 04:42:50;;;;;;;0.30;0.30;;;;;;;10.24;100.00;101080.78;5052427;28;20025;-88
2023/04/30 04:45:19;;;;;;;0.30;0.30;;;;;;;10.15;100.00;101066.50;5052170;28;20116;-83
2023/04/30 04:47:53;;;;;;;0.40;0.40;;;;;;;10.23;100.00;101082.63;5035835;28;20175;-84
2023/04/30 04:50:28;;;;;;;0.40;0.40;;;;;;;10.25;100.00;101085.16;5035855;28;20131;-86
2023/04/30 04:52:54;;;;;;;0.30;0.30;;;;;;;10.26;100.00;101076.09;5050291;28;20036;-87
2023/04/30 04:55:20;;;;;;;0.40;0.40;;;;;;;10.26;100.00;101073.41;5035926;28;20037;-87
2023/04/30 04:57:48;;;;;;;0.38;0.38;;;;;;;10.15;100.00;101052.22;5053684;28;20029;-87
2023/04/30 05:00:15;;;;;;;0.40;0.40;;;;;;;10.28;100.00;101074.13;5051540;28;20029;-86
2023/04/30 05:02:41;;;;;;;0.40;0.40;;;;;;;10.25;100.00;101074.41;5052906;28;20033;-82
2023/04/30 05:05:09;;;;;;;0.30;0.30;;;;;;;10.27;100.00;101070.59;5052465;28;20029;-88
2023/04/30 05:07:37;;;;;;;0.30;0.30;;;;;;;10.31;100.00;101074.59;5019414;28;20446;-82
2023/04/30 05:10:03;;;;;;;0.40;0.40;;;;;;;10.28;100.00;101061.50;5018805;28;20036;-82
2023/04/30 05:12:28;;;;;;;0.32;0.32;;;;;;;10.41;100.00;101073.63;5052154;28;20100;-88
2023/04/30 05:14:57;;;;;;;0.40;0.40;;;;;;;10.40;100.00;101059.34;5051667;28;20043;-88
2023/04/30 05:17:22;;;;;;;0.30;0.30;;;;;;;10.42;100.00;101069.91;5051371;28;20040;-88
2023/04/30 05:19:55;;;;;;;0.30;0.30;;;;;;;10.43;100.00;101061.69;5052259;28;20032;-87
2023/04/30 05:22:21;;;;;;;0.30;0.30;;;;;;;10.43;100.00;101060.88;5018065;28;20033;-88
2023/04/30 05:24:46;;;;;;;0.40;0.40;;;;;;;10.43;100.00;101055.50;5051668;28;20033;-87
2023/04/30 05:27:12;;;;;;;0.40;0.40;;;;;;;10.52;100.00;101074.13;5052413;28;20055;-85
2023/04/30 05:29:44;;;;;;;0.40;0.40;;;;;;;10.57;100.00;101069.09;5050484;28;20041;-82
2023/04/30 05:32:10;;;;;;;0.40;0.40;;;;;;;10.66;100.00;101077.97;5035355;28;20095;-83
2023/04/30 05:34:35;;;;;;;0.40;0.40;;;;;;;10.73;100.00;101087.06;5051665;28;20025;-84
2023/04/30 05:37:04;;;;;;;0.40;0.40;;;;;;;10.75;100.00;101068.06;5051246;28;20395;-84
2023/04/30 05:39:30;;;;;;;0.40;0.40;;;;;;;10.75;100.00;101060.84;5037867;28;20041;-87
2023/04/30 05:42:02;;;;;;;0.40;0.40;;;;;;;10.86;100.00;101075.78;5038579;28;20029;-85
2023/04/30 05:44:31;;;;;;;0.40;0.40;;;;;;;10.82;100.00;101069.06;5023019;28;20033;-87
2023/04/30 05:47:09;;;;;;;0.40;0.40;;;;;;;10.83;100.00;101075.31;5055961;28;20063;-82
2023/04/30 05:49:40;;;;;;;0.40;0.40;;;;;;;10.82;100.00;101078.97;5054964;28;20037;-84
2023/04/30 05:52:06;;;;;;;0.40;0.40;;;;;;;10.85;100.00;101082.19;5022560;28;20064;-83
2023/04/30 05:54:32;;;;;;;0.30;0.30;;;;;;;10.92;100.00;101088.56;5055263;28;20033;-85
2023/04/30 05:57:00;;;;;;;0.40;0.40;;;;;;;10.97;100.00;101080.81;5053758;28;20060;-87
2023/04/30 05:59:29;;;;;;;0.40;0.40;;;;;;;10.97;100.00;101080.81;5038322;28;20041;-87
2023/04/30 06:01:59;;;;;;;0.40;0.40;;;;;;;11.03;100.00;101092.75;5055068;28;20040;-85
2023/04/30 06:04:28;;;;;;;0.40;0.40;;;;;;;11.05;100.00;101088.03;5038261;28;20033;-85
2023/04/30 06:06:54;;;;;;;0.40;0.40;;;;;;;10.98;100.00;101079.81;5055098;28;20470;-87
2023/04/30 06:09:22;;;;;;;0.40;0.40;;;;;;;10.85;100.00;101071.44;5057087;28;20056;-82
2023/04/30 06:11:51;;;;;;;0.40;0.40;;;;;;;11.00;100.00;101088.53;5028433;28;20035;-81
2023/04/30 06:14:21;;;;;;;0.40;0.40;;;;;;;10.98;100.00;101078.97;5047459;28;20052;-84
2023/04/30 06:16:52;;;;;;;0.40;0.40;;;;;;;11.03;100.00;101076.59;5038410;28;20395;-85
2023/04/30 06:19:19;;;;;;;0.40;0.40;;;;;;;11.21;100.00;101089.84;5055500;28;20039;-85
2023/04/30 06:21:49;;;;;;;0.40;0.40;;;;;;;11.40;100.00;101100.22;5054061;28;20071;-83
2023/04/30 06:24:16;;;;;;;0.40;0.40;;;;;;;11.60;100.00;101103.38;5038754;28;20031;-85
2023/04/30 06:26:42;;;;;;;0.40;0.40;;;;;;;11.77;100.00;101106.00;5038007;28;20029;-87
2023/04/30 06:29:10;;;;;;;0.40;0.40;;;;;;;11.87;100.00;101106.66;5037122;28;20041;-89
2023/04/30 06:31:37;;;;;;;0.30;0.30;;;;;;;11.74;100.00;101099.09;5022122;28;20090;-85
2023/04/30 06:34:08;;;;;;;0.40;0.40;;;;;;;11.53;100.00;101110.47;5054719;28;20128;-85
2023/04/30 06:36:40;;;;;;;0.40;0.40;;;;;;;11.34;100.00;101110.84;5020187;28;20041;-86
2023/04/30 06:39:06;;;;;;;0.30;0.30;;;;;;;11.24;100.00;101111.03;5022185;28;20123;-87
2023/04/30 06:41:31;;;;;;;0.40;0.40;;;;;;;11.18;100.00;101104.50;5053604;28;20100;-88
2023/04/30 06:44:02;;;;;;;0.40;0.40;;;;;;;11.21;100.00;101120.28;5038170;28;20513;-85
2023/04/30 06:46:27;;;;;;;0.40;0.40;;;;;;;11.12;100.00;101112.44;5053853;28;20487;-86
2023/04/30 06:48:54;;;;;;;0.40;0.40;;;;;;;11.15;100.00;101123.69;5053897;28;20025;-85
2023/04/30 06:51:20;;;;;;;0.40;0.40;;;;;;;11.19;100.00;101118.78;5036943;28;20033;-86
2023/04/30 06:53:46;;;;;;;0.40;0.40;;;;;;;11.13;100.00;101120.31;5021364;28;20431;-87
2023/04/30 06:56:15;;;;;;;0.40;0.40;;;;;;;11.23;100.00;101125.53;5054253;28;20477;-84
2023/04/30 06:58:41;;;;;;;0.40;0.40;;;;;;;11.25;100.00;101123.50;5037599;28;20127;-86
2023/04/30 07:01:07;;;;;;;0.40;0.40;;;;;;;11.33;100.00;101123.50;5055408;28;20476;-85
2023/04/30 07:03:33;;;;;;;0.40;0.40;;;;;;;11.58;100.00;101137.72;5037610;28;20032;-86
2023/04/30 07:05:59;;;;;;;0.40;0.40;;;;;;;11.60;100.00;101129.47;5055346;28;20037;-85
2023/04/30 07:08:25;;;;;;;0.40;0.40;;;;;;;11.71;100.00;101134.47;5037903;28;20040;-86
2023/04/30 07:10:51;;;;;;;0.40;0.40;;;;;;;11.93;100.00;101132.06;5054484;28;20036;-88
2023/04/30 07:13:17;;;;;;;0.50;0.50;;;;;;;12.19;100.00;101121.81;5062831;28;20033;-84
2023/04/30 07:15:42;;;;;;;0.40;0.40;;;;;;;12.22;100.00;101124.16;5061017;28;20120;-84
2023/04/30 07:18:08;;;;;;;0.40;0.40;;;;;;;12.26;100.00;101120.09;5037402;28;20163;-86
2023/04/30 07:20:34;;;;;;;0.40;0.40;;;;;;;12.66;100.00;101133.47;5037463;28;20376;-84
2023/04/30 07:23:00;;;;;;;0.40;0.40;;;;;;;12.83;100.00;101129.59;5054950;28;20029;-86
2023/04/30 07:25:26;;;;;;;0.40;0.40;;;;;;;12.91;100.00;101142.19;5054556;28;20504;-88
2023/04/30 07:27:52;;;;;;;0.40;0.40;;;;;;;12.99;100.00;101142.13;5053845;28;20127;-87
2023/04/30 07:30:21;;;;;;;0.40;0.40;;;;;;;12.81;100.00;101137.06;5036784;28;20029;-85
2023/04/30 07:32:50;;;;;;;0.43;0.43;;;;;;;13.09;100.00;101140.00;5037448;28;20108;-88
2023/04/30 07:35:19;;;;;;;0.50;0.50;;;;;;;14.70;100.00;101138.41;5037200;28;20041;-83
2023/04/30 07:37:45;;;;;;;0.50;0.50;;;;;;;15.04;100.00;101134.13;5037104;28;20029;-84
2023/04/30 07:40:12;;;;;;;0.50;0.50;;;;;;;15.37;100.00;101146.06;5053983;28;20518;-85
2023/04/30 07:42:43;;;;;;;0.50;0.50;;;;;;;15.51;100.00;101146.13;5054168;28;20041;-85
2023/04/30 07:45:12;;;;;;;0.40;0.40;;;;;;;15.40;100.00;101147.53;5037365;28;20027;-85
2023/04/30 07:47:41;;;;;;;0.50;0.50;;;;;;;15.44;100.00;101140.66;5036623;28;20029;-84
2023/04/30 07:50:09;;;;;;;0.70;0.70;;;;;;;16.38;100.00;101150.09;5053376;28;20462;-85
2023/04/30 07:52:35;;;;;;;0.50;0.50;;;;;;;15.85;100.00;101144.47;5019633;28;20044;-81
2023/04/30 07:55:00;;;;;;;0.40;0.40;;;;;;;15.53;100.00;101146.75;5053882;28;20037;-86
2023/04/30 07:57:26;;;;;;;0.40;0.40;;;;;;;15.21;100.00;101149.03;5054854;28;20036;-89
2023/04/30 07:59:52;;;;;;;0.40;0.40;;;;;;;14.79;100.00;101142.66;5036249;28;20024;-87
2023/04/30 08:02:18;;;;;;;0.40;0.40;;;;;;;14.81;100.00;101146.00;5052306;28;20040;-84
2023/04/30 08:04:44;;;;;;;0.40;0.40;;;;;;;14.34;100.00;101143.81;5036424;28;20037;-85
2023/04/30 08:07:10;;;;;;;0.35;0.35;;;;;;;14.02;100.00;101156.75;5019895;28;20051;-84
2023/04/30 08:09:35;;;;;;;0.40;0.40;;;;;;;13.64;100.00;101136.09;5053919;28;20040;-84
2023/04/30 08:12:03;;;;;;;0.30;0.30;;;;;;;13.45;100.00;101150.16;5053683;28;20029;-83
2023/04/30 08:14:30;;;;;;;0.40;0.40;;;;;;;13.22;100.00;101152.06;5053816;28;20044;-84
2023/04/30 08:16:57;;;;;;;0.40;0.40;;;;;;;13.36;100.00;101160.22;5052864;28;20118;-87
2023/04/30 08:19:23;;;;;;;0.40;0.40;;;;;;;13.54;100.00;101162.56;5053647;28;20175;-84
2023/04/30 08:21:50;;;;;;;0.47;0.47;;;;;;;13.94;100.00;101160.41;5053808;28;20523;-84
2023/04/30 08:24:16;;;;;;;0.40;0.40;;;;;;;14.28;100.00;101156.25;5053943;28;20063;-85
2023/04/30 08:26:48;;;;;;;0.50;0.50;;;;;;;15.37;100.00;101165.00;5052504;28;20064;-85
2023/04/30 08:29:14;;;;;;;0.43;0.43;;;;;;;16.90;100.00;101167.56;5020733;28;20037;-84
2023/04/30 08:31:40;;;;;;;0.50;0.50;;;;;;;17.02;100.00;101165.91;5054018;28;20037;-84
2023/04/30 08:34:05;;;;;;;0.60;0.60;;;;;;;17.00;100.00;101167.97;5052360;28;20502;-85
2023/04/30 08:36:31;;;;;;;0.40;0.40;;;;;;;16.57;100.00;101173.75;5036217;28;20033;-84
2023/04/30 08:38:57;;;;;;;0.40;0.40;;;;;;;15.81;100.00;101166.56;5052646;28;20511;-85
2023/04/30 08:41:25;;;;;;;0.40;0.40;;;;;;;15.47;100.00;101156.53;5053450;28;20025;-84
2023/04/30 08:43:52;;;;;;;0.40;0.40;;;;;;;15.12;100.00;101164.59;5052192;28;20048;-87
2023/04/30 08:46:19;;;;;;;0.40;0.40;;;;;;;14.65;100.00;101157.09;5054033;28;20112;-83
2023/04/30 08:48:47;;;;;;;0.40;0.40;;;;;;;14.55;100.00;101170.09;5020616;28;20094;-82
2023/04/30 08:51:15;;;;;;;0.63;0.63;;;;;;;16.95;100.00;101169.66;5021478;28;20033;-86
2023/04/30 08:53:41;;;;;;;0.73;0.73;;;;;;;19.61;100.00;101168.44;5054007;28;20071;-86
2023/04/30 08:56:09;;;;;;;0.70;0.70;;;;;;;21.59;95.06;101174.09;5036336;28;20037;-82
2023/04/30 08:58:36;;;;;;;0.70;0.70;;;;;;;22.83;86.80;101166.22;5036090;28;20029;-87
2023/04/30 09:01:02;;;;;;;0.90;0.90;;;;;;;23.76;82.91;101171.28;5035118;28;20395;-82
2023/04/30 09:03:30;;;;;;;1.23;0.70;;;;;;;24.11;79.06;101167.34;5051700;28;20108;-85
2023/04/30 09:05:59;;;;;;;1.38;0.57;;;;;;;21.58;87.54;101156.84;5017602;28;20037;-83
2023/04/30 09:08:43;;;;;;;0.70;0.70;;;;;;;19.08;100.00;101158.88;5031604;28;20025;-83
2023/04/30 09:11:30;;;;;;;2.25;1.00;;;;;;;18.19;100.00;101157.94;5052045;28;20098;-83
2023/04/30 09:14:00;;;;;;;5.97;1.73;;;;;;;21.03;100.00;101160.72;5054537;28;20086;-84
2023/04/30 09:16:28;;;;;;;3.38;1.48;;;;;;;22.11;92.40;101157.69;5039364;28;20032;-83
2023/04/30 09:18:57;;;;;;;2.28;1.48;;;;;;;24.75;81.79;101164.75;5056062;28;20463;-84
2023/04/30 09:21:34;;;;;;;8.38;2.20;;;;;;;26.09;73.00;101159.09;5055925;28;20364;-86
2023/04/30 09:24:04;;;;;;;2.78;1.17;;;;;;;22.72;82.55;101160.81;5006505;28;20048;-87
2023/04/30 09:26:34;;;;;;;4.03;1.75;;;;;;;20.76;90.76;101164.94;5039175;28;20445;-84
2023/04/30 09:29:09;;;;;;;9.52;1.80;;;;;;;19.57;98.42;101157.16;5023153;28;20433;-83
2023/04/30 09:31:39;;;;;;;6.63;1.98;;;;;;;20.92;96.11;101163.44;5007450;28;20102;-85
2023/04/30 09:34:07;;;;;;;5.95;1.50;;;;;;;22.79;87.70;101172.44;5055747;28;20048;-83
2023/04/30 09:36:33;;;;;;;4.03;2.08;;;;;;;25.50;76.34;101169.50;5023054;28;20127;-84
2023/04/30 09:39:17;;;;;;;5.30;1.77;;;;;;;26.21;73.18;101172.63;5038565;28;20479;-87
2023/04/30 09:41:49;;;;;;;5.30;1.75;;;;;;;23.52;77.78;101165.13;5040592;28;20116;-81
2023/04/30 09:44:28;;;;;;;7.05;2.22;;;;;;;20.26;90.15;101166.03;5022633;28;20494;-83
2023/04/30 09:46:57;;;;;;;6.25;1.98;;;;;;;17.97;96.11;101168.31;5055393;28;20029;-82
2023/04/30 09:49:24;;;;;;;6.75;1.77;;;;;;;16.42;100.00;101178.50;5055765;28;20033;-80
2023/04/30 09:52:01;;;;;;;2.75;1.17;;;;;;;15.45;100.00;101179.44;5055800;28;20029;-86
2023/04/30 09:54:28;;;;;;;1.10;0.80;;;;;;;14.72;100.00;101191.31;5038704;28;20123;-81
2023/04/30 09:57:00;;;;;;;0.40;0.40;;;;;;;13.93;100.00;101180.34;5038762;28;20039;-81
2023/04/30 09:59:38;;;;;;;0.70;0.70;;;;;;;13.51;100.00;101192.63;5054921;28;20056;-81
2023/04/30 10:02:08;;;;;;;0.40;0.40;;;;;;;13.44;100.00;101177.34;5039781;28;20041;-81
2023/04/30 10:04:41;;;;;;;0.40;0.40;;;;;;;13.76;100.00;101186.97;5038802;28;20036;-83
2023/04/30 10:07:16;;;;;;;0.40;0.40;;;;;;;14.21;100.00;101202.16;5021906;28;20033;-83
2023/04/30 10:09:50;;;;;;;0.32;0.32;;;;;;;14.63;100.00;101188.91;5022358;28;20479;-80
2023/04/30 10:12:24;;;;;;;;;;;;;;;15.18;100.00;101200.91;5022309;28;20029;-81
2023/04/30 10:15:07;;;;;;;0.43;0.43;;;;;;;16.17;100.00;101197.22;5054642;28;19999;-80
2023/04/30 10:17:35;;;;;;;1.00;1.00;;;;;;;20.82;100.00;101203.09;5022313;28;20033;-81
2023/04/30 10:20:20;;;;;;;0.50;0.50;;;;;;;20.36;95.27;101201.00;5022399;28;20072;-82
2023/04/30 10:22:51;;;;;;;0.43;0.43;;;;;;;18.31;100.00;101202.50;5020724;28;20123;-84
2023/04/30 10:25:18;;;;;;;0.50;0.50;;;;;;;16.64;100.00;101206.31;5020809;28;20028;-81
2023/04/30 10:27:51;;;;;;;0.43;0.43;;;;;;;15.65;100.00;101199.38;5054907;28;20082;-82
2023/04/30 10:30:17;;;;;;;0.50;0.50;;;;;;;15.43;100.00;101209.44;5022652;28;20039;-81
2023/04/30 10:33:16;;;;;;;0.47;0.47;;;;;;;15.60;100.00;101191.84;5037928;28;20021;-82
2023/04/30 10:35:49;;;;;;;0.50;0.50;;;;;;;16.60;100.00;101200.47;5037368;28;20075;-83
2023/04/30 10:38:29;;;;;;;0.70;0.70;;;;;;;18.51;100.00;101201.56;5054462;28;20041;-85
2023/04/30 10:41:01;;;;;;;0.60;0.60;;;;;;;21.66;90.07;101202.19;5022342;28;20040;-83
2023/04/30 10:43:29;;;;;;;0.50;0.50;;;;;;;19.92;93.23;101197.53;5020979;28;20505;-83
2023/04/30 10:46:01;;;;;;;0.40;0.40;;;;;;;17.98;100.00;101203.44;5053651;28;20103;-83
2023/04/30 10:48:33;;;;;;;0.40;0.40;;;;;;;16.47;100.00;101208.59;5021444;28;20467;-83
2023/04/30 10:50:59;;;;;;;0.40;0.40;;;;;;;15.70;100.00;101202.38;5037789;28;20115;-83
2023/04/30 10:53:30;;;;;;;0.40;0.40;;;;;;;15.37;100.00;101199.38;5036714;28;20261;-81
2023/04/30 10:56:07;;;;;;;0.43;0.43;;;;;;;15.57;100.00;101205.78;5019665;28;20389;-84
2023/04/30 10:58:38;;;;;;;0.40;0.40;;;;;;;15.78;100.00;101191.38;5054035;28;20025;-83
2023/04/30 11:01:14;;;;;;;1.00;1.00;;;;;;;18.79;100.00;101199.34;5037652;28;20036;-82
2023/04/30 11:03:41;;;;;;;0.70;0.70;;;;;;;21.44;94.59;101200.03;5020994;28;20076;-83
2023/04/30 11:06:10;;;;;;;0.90;0.90;;;;;;;23.61;87.87;101196.56;5037412;28;20032;-83
2023/04/30 11:08:37;;;;;;;0.40;0.40;;;;;;;22.65;83.62;101202.09;5020654;28;20037;-84
2023/04/30 11:11:06;;;;;;;0.40;0.40;;;;;;;19.97;95.25;101209.41;5036498;28;20729;-82
2023/04/30 11:13:43;;;;;;;0.30;0.30;;;;;;;17.69;100.00;101212.91;5053980;28;20466;-84
2023/04/30 11:16:09;;;;;;;0.40;0.40;;;;;;;15.67;100.00;101204.63;5037041;28;20391;-83
2023/04/30 11:18:44;;;;;;;0.40;0.40;;;;;;;15.07;100.00;101198.72;5036536;28;20036;-83
2023/04/30 11:21:09;;;;;;;0.40;0.40;;;;;;;15.13;100.00;101200.66;5053370;28;20041;-81
2023/04/30 11:23:36;;;;;;;0.80;0.80;;;;;;;16.75;100.00;101192.16;5020697;28;20048;-83
2023/04/30 11:26:02;;;;;;;0.80;0.80;;;;;;;20.86;98.75;101196.09;5053208;28;20490;-82
2023/04/30 11:28:30;;;;;;;0.80;0.80;;;;;;;23.56;84.47;101188.28;5036767;28;20045;-82
2023/04/30 11:30:59;;;;;;;0.63;0.63;;;;;;;20.99;88.43;101194.25;5036789;28;20066;-82